Time;durP1;ratioP1;P1;durP2;ratioP2;P2;SDS_P1;SDS_P2;PMS_P1;PMS_P2;Temp;Humidity;BMP_temperature;BMP_pressure;BME280_temperature;BME280_humidity;BME280_pressure;Samples;Min_cycle;Max_cycle;Signal;HPM_P1;HPM_P2
2023/12/26 00:01:33;;;;;;;11.25;2.38;;;29.10;96.20;;;;;;5033962;28;20032;-75
2023/12/26 00:04:01;;;;;;;21.98;3.53;;;28.90;96.00;;;;;;5033600;28;20100;-73
2023/12/26 00:06:29;;;;;;;12.40;2.42;;;28.80;95.40;;;;;;5035975;28;20047;-74
2023/12/26 00:08:59;;;;;;;11.45;2.60;;;28.60;95.10;;;;;;5032692;28;20049;-73
2023/12/26 00:11:28;;;;;;;12.77;2.90;;;28.20;96.30;;;;;;5028035;28;20033;-73
2023/12/26 00:13:57;;;;;;;16.13;2.38;;;28.30;96.70;;;;;;5027202;28;20138;-73
2023/12/26 00:16:25;;;;;;;12.73;2.60;;;28.90;95.90;;;;;;5035433;28;20501;-73
2023/12/26 00:18:53;;;;;;;9.43;2.17;;;29.10;95.50;;;;;;5029721;28;20372;-73
2023/12/26 00:21:25;;;;;;;10.80;2.53;;;29.30;96.20;;;;;;5031976;28;20034;-73
2023/12/26 00:23:54;;;;;;;13.25;2.80;;;29.50;95.10;;;;;;5034985;28;20021;-74
2023/12/26 00:26:24;;;;;;;22.38;3.10;;;29.50;94.80;;;;;;5031637;28;20041;-74
2023/12/26 00:28:52;;;;;;;14.10;2.85;;;29.40;95.00;;;;;;5035132;28;20041;-73
2023/12/26 00:31:20;;;;;;;10.73;2.20;;;29.50;94.30;;;;;;5036372;28;20029;-73
2023/12/26 00:33:53;;;;;;;11.45;2.55;;;29.90;95.00;;;;;;5016377;28;20375;-72
2023/12/26 00:36:21;;;;;;;13.98;2.60;;;30.50;95.00;;;;;;5021366;28;20095;-73
2023/12/26 00:38:53;;;;;;;9.82;2.85;;;30.70;94.70;;;;;;5034755;28;20034;-73
2023/12/26 00:41:21;;;;;;;14.70;2.55;;;30.60;93.60;;;;;;5018511;28;20025;-73
2023/12/26 00:43:50;;;;;;;10.30;2.88;;;30.20;94.00;;;;;;5032034;28;20033;-72
2023/12/26 00:46:20;;;;;;;8.88;2.33;;;30.30;94.50;;;;;;5031286;28;20436;-73
2023/12/26 00:48:51;;;;;;;13.52;2.47;;;30.50;93.40;;;;;;5031474;28;20453;-72
2023/12/26 00:51:18;;;;;;;6.50;2.25;;;31.10;91.60;;;;;;5019392;28;20427;-72
2023/12/26 00:53:46;;;;;;;14.15;2.83;;;31.30;91.00;;;;;;5026360;28;20032;-73
2023/12/26 00:56:14;;;;;;;11.05;2.30;;;30.80;91.50;;;;;;5019268;28;20032;-72
2023/12/26 00:58:42;;;;;;;7.00;2.15;;;31.00;92.50;;;;;;5008033;28;20030;-73
2023/12/26 01:01:09;;;;;;;8.95;2.55;;;31.20;91.90;;;;;;5024396;28;20033;-74
2023/12/26 01:03:37;;;;;;;8.65;2.47;;;30.80;92.20;;;;;;5039135;28;20104;-74
2023/12/26 01:06:05;;;;;;;8.38;2.70;;;30.40;92.80;;;;;;5027496;28;20040;-73
2023/12/26 01:08:33;;;;;;;8.30;2.30;;;30.40;93.20;;;;;;5036229;28;20036;-73
2023/12/26 01:11:02;;;;;;;10.38;2.88;;;30.60;92.40;;;;;;5050120;28;20033;-75
2023/12/26 01:13:34;;;;;;;9.88;2.65;;;31.10;92.20;;;;;;5045867;28;20024;-73
2023/12/26 01:16:06;;;;;;;12.70;2.53;;;31.90;91.60;;;;;;5025207;28;20063;-73
2023/12/26 01:18:34;;;;;;;11.20;2.72;;;32.50;91.50;;;;;;5032134;28;20044;-72
2023/12/26 01:21:05;;;;;;;10.35;2.47;;;32.80;91.00;;;;;;5048576;28;20028;-73
2023/12/26 01:23:34;;;;;;;10.98;2.75;;;33.40;89.20;;;;;;5050729;28;20025;-73
2023/12/26 01:26:05;;;;;;;11.02;2.70;;;33.60;89.60;;;;;;5051810;28;20021;-73
2023/12/26 01:28:33;;;;;;;7.57;2.17;;;33.70;86.70;;;;;;5047396;28;20036;-73
2023/12/26 01:31:00;;;;;;;8.88;2.35;;;33.60;87.00;;;;;;5052699;28;20032;-73
2023/12/26 01:33:28;;;;;;;9.25;2.58;;;34.10;86.80;;;;;;5052193;28;20033;-72
2023/12/26 01:35:56;;;;;;;7.28;2.50;;;33.80;84.90;;;;;;5049308;28;20048;-73
2023/12/26 01:38:26;;;;;;;10.02;2.47;;;34.30;83.50;;;;;;5054660;28;20063;-72
2023/12/26 01:40:54;;;;;;;7.05;2.47;;;34.60;83.70;;;;;;5028188;28;20039;-73
2023/12/26 01:43:26;;;;;;;9.13;3.10;;;34.70;84.40;;;;;;5049938;28;20489;-73
2023/12/26 01:46:02;;;;;;;7.55;2.72;;;34.40;82.50;;;;;;5046223;28;20079;-74
2023/12/26 01:48:31;;;;;;;10.13;2.65;;;33.70;83.20;;;;;;5048877;28;20021;-72
2023/12/26 01:51:03;;;;;;;11.07;2.63;;;33.40;84.00;;;;;;5053178;28;20025;-73
2023/12/26 01:53:30;;;;;;;11.38;2.72;;;33.50;82.10;;;;;;5029990;28;20144;-74
2023/12/26 01:55:59;;;;;;;7.40;2.67;;;34.10;80.50;;;;;;5050612;28;20123;-74
2023/12/26 01:58:27;;;;;;;9.18;2.25;;;34.50;80.30;;;;;;5053031;28;20025;-73
2023/12/26 02:00:55;;;;;;;7.95;2.85;;;34.90;82.40;;;;;;5050536;28;20033;-73
2023/12/26 02:03:23;;;;;;;9.30;2.70;;;35.30;80.00;;;;;;5053060;28;20106;-73
2023/12/26 02:05:52;;;;;;;7.53;2.53;;;35.00;79.10;;;;;;5054332;28;20413;-73
2023/12/26 02:08:22;;;;;;;6.78;2.60;;;34.70;77.40;;;;;;5050233;28;20057;-73
2023/12/26 02:10:49;;;;;;;8.45;3.10;;;34.00;75.70;;;;;;5053071;28;20033;-72
2023/12/26 02:13:18;;;;;;;6.72;2.83;;;33.80;78.00;;;;;;5049692;28;20083;-73
2023/12/26 02:15:50;;;;;;;9.60;2.80;;;33.30;78.40;;;;;;5024927;28;20380;-72
2023/12/26 02:18:18;;;;;;;12.70;3.15;;;33.20;77.90;;;;;;5048502;28;20059;-72
2023/12/26 02:20:46;;;;;;;12.23;2.53;;;33.00;78.30;;;;;;5051441;28;20029;-73
2023/12/26 02:23:14;;;;;;;9.55;2.38;;;33.40;78.60;;;;;;5050127;28;20566;-73
2023/12/26 02:25:42;;;;;;;7.57;2.53;;;34.20;77.70;;;;;;5046755;28;20037;-74
2023/12/26 02:28:13;;;;;;;10.27;2.65;;;34.70;76.90;;;;;;5048261;28;20032;-73
2023/12/26 02:30:43;;;;;;;8.13;2.72;;;34.70;74.90;;;;;;5047731;28;20029;-74
2023/12/26 02:33:15;;;;;;;10.90;4.95;;;33.80;75.80;;;;;;5034121;28;20037;-75
2023/12/26 02:35:49;;;;;;;11.85;3.65;;;33.00;75.00;;;;;;5034017;28;20044;-74
2023/12/26 02:38:16;;;;;;;7.22;2.83;;;32.40;77.00;;;;;;5033271;28;20040;-74
2023/12/26 02:40:52;;;;;;;11.13;3.13;;;32.10;79.20;;;;;;5048756;28;20033;-73
2023/12/26 02:43:34;;;;;;;6.97;2.92;;;32.10;78.30;;;;;;5049773;28;20468;-74
2023/12/26 02:46:03;;;;;;;9.75;3.10;;;32.00;78.40;;;;;;5050060;28;20386;-74
2023/12/26 02:48:33;;;;;;;9.25;3.00;;;31.90;80.10;;;;;;5032541;28;20190;-74
2023/12/26 02:51:03;;;;;;;12.00;3.10;;;31.90;79.00;;;;;;5031561;28;20123;-73
2023/12/26 02:53:31;;;;;;;10.55;3.50;;;31.80;78.80;;;;;;5046690;28;20381;-74
2023/12/26 02:55:59;;;;;;;14.38;3.00;;;31.60;79.00;;;;;;5051466;28;20044;-74
2023/12/26 02:58:31;;;;;;;7.32;3.00;;;31.50;81.10;;;;;;5056758;28;20033;-75
2023/12/26 03:01:03;;;;;;;14.02;4.15;;;31.30;81.30;;;;;;5051302;28;20052;-75
2023/12/26 03:03:32;;;;;;;9.85;3.92;;;31.20;80.70;;;;;;5037036;28;20115;-77
2023/12/26 03:06:01;;;;;;;9.77;3.55;;;30.80;79.90;;;;;;5050780;28;20107;-74
2023/12/26 03:08:34;;;;;;;11.07;3.67;;;30.40;81.20;;;;;;5049597;28;20052;-76
2023/12/26 03:11:09;;;;;;;14.85;3.25;;;30.10;82.50;;;;;;5051519;28;20028;-73
2023/12/26 03:13:37;;;;;;;8.00;3.38;;;29.90;83.10;;;;;;5032181;28;20037;-73
2023/12/26 03:16:05;;;;;;;10.65;3.13;;;29.90;84.00;;;;;;5042417;28;20036;-74
2023/12/26 03:18:33;;;;;;;11.45;3.60;;;29.90;84.60;;;;;;5051392;28;20067;-73
2023/12/26 03:21:05;;;;;;;12.35;3.35;;;29.90;85.60;;;;;;5054900;28;20033;-73
2023/12/26 03:23:32;;;;;;;15.32;4.18;;;29.90;84.80;;;;;;5035530;28;20025;-73
2023/12/26 03:26:08;;;;;;;9.13;4.45;;;29.90;84.70;;;;;;5035425;28;20120;-73
2023/12/26 03:28:36;;;;;;;12.93;3.78;;;30.00;84.80;;;;;;5039183;28;20157;-74
2023/12/26 03:31:07;;;;;;;8.13;3.13;;;30.40;84.40;;;;;;5055383;28;20183;-74
2023/12/26 03:33:40;;;;;;;9.15;3.45;;;31.20;82.90;;;;;;5039074;28;20359;-74
2023/12/26 03:36:08;;;;;;;14.15;4.20;;;31.60;80.50;;;;;;5050590;28;20041;-73
2023/12/26 03:38:37;;;;;;;9.50;3.47;;;31.40;79.50;;;;;;5051552;28;20127;-73
2023/12/26 03:41:18;;;;;;;7.60;3.15;;;31.40;79.40;;;;;;5055827;28;20036;-73
2023/12/26 03:43:47;;;;;;;8.43;3.53;;;31.40;78.50;;;;;;5035275;28;20045;-73
2023/12/26 03:46:15;;;;;;;10.43;3.90;;;31.10;78.70;;;;;;5055029;28;20148;-73
2023/12/26 03:48:44;;;;;;;12.00;3.70;;;31.30;78.80;;;;;;5048846;28;20031;-74
2023/12/26 03:51:12;;;;;;;9.98;3.38;;;31.90;78.30;;;;;;5020863;28;20033;-73
2023/12/26 03:53:43;;;;;;;21.70;3.75;;;32.50;77.20;;;;;;5049743;28;20115;-73
2023/12/26 03:56:12;;;;;;;18.02;4.18;;;33.20;83.80;;;;;;5052340;28;20044;-74
2023/12/26 03:58:41;;;;;;;20.67;4.35;;;32.80;84.70;;;;;;5037893;28;20044;-73
2023/12/26 04:01:14;;;;;;;17.10;3.78;;;32.30;87.30;;;;;;5037013;28;20060;-74
2023/12/26 04:03:47;;;;;;;19.08;3.90;;;32.30;88.70;;;;;;5053565;28;20048;-75
2023/12/26 04:06:20;;;;;;;15.82;4.07;;;32.40;89.70;;;;;;5031361;28;20285;-75
2023/12/26 04:08:49;;;;;;;16.35;3.53;;;32.50;90.00;;;;;;5049099;28;20404;-74
2023/12/26 04:11:24;;;;;;;30.60;4.25;;;32.90;88.70;;;;;;5046499;28;20049;-74
2023/12/26 04:13:52;;;;;;;17.90;4.00;;;32.80;90.30;;;;;;5038352;28;20040;-73
2023/12/26 04:16:20;;;;;;;16.67;3.40;;;32.80;90.50;;;;;;5054527;28;20041;-72
2023/12/26 04:18:48;;;;;;;16.90;3.80;;;33.00;89.70;;;;;;5046250;28;20516;-74
2023/12/26 04:21:15;;;;;;;20.55;3.67;;;32.90;90.10;;;;;;5049270;28;20029;-74
2023/12/26 04:23:43;;;;;;;16.52;3.85;;;32.70;90.10;;;;;;5048882;28;20037;-75
2023/12/26 04:26:11;;;;;;;17.60;3.58;;;32.90;90.40;;;;;;5047319;28;20021;-75
2023/12/26 04:28:39;;;;;;;14.25;3.08;;;32.60;88.60;;;;;;5025947;28;20395;-74
2023/12/26 04:31:08;;;;;;;21.75;4.70;;;32.40;90.00;;;;;;5028109;28;20052;-73
2023/12/26 04:33:49;;;;;;;16.52;3.67;;;32.40;90.20;;;;;;5032235;28;20123;-75
2023/12/26 04:36:20;;;;;;;19.25;3.60;;;32.30;89.60;;;;;;5044354;28;20044;-74
2023/12/26 04:38:54;;;;;;;18.75;3.40;;;32.40;90.00;;;;;;5044330;28;20474;-73
2023/12/26 04:41:21;;;;;;;15.05;3.42;;;32.30;89.10;;;;;;5046204;28;20037;-74
2023/12/26 04:43:49;;;;;;;18.98;3.50;;;32.30;90.20;;;;;;5044534;28;20036;-75
2023/12/26 04:46:21;;;;;;;13.75;3.22;;;32.50;89.40;;;;;;5053948;28;20029;-73
2023/12/26 04:48:50;;;;;;;14.13;3.47;;;32.50;88.60;;;;;;5053786;28;20040;-73
2023/12/26 04:51:20;;;;;;;18.80;3.72;;;32.40;89.10;;;;;;5018033;28;20032;-73
2023/12/26 04:53:50;;;;;;;14.45;3.35;;;32.30;88.40;;;;;;5050965;28;20462;-73
2023/12/26 04:56:21;;;;;;;17.10;3.60;;;31.90;89.80;;;;;;5050379;28;20132;-73
2023/12/26 04:58:51;;;;;;;17.08;4.65;;;31.60;90.30;;;;;;5044472;28;20037;-73
2023/12/26 05:01:21;;;;;;;15.80;3.60;;;31.60;90.70;;;;;;5052018;28;20079;-73
2023/12/26 05:03:50;;;;;;;19.23;4.03;;;31.60;90.40;;;;;;5054018;28;20470;-74
2023/12/26 05:06:21;;;;;;;15.77;3.90;;;31.50;90.60;;;;;;5051862;28;20498;-73
2023/12/26 05:08:48;;;;;;;17.45;3.83;;;31.20;90.80;;;;;;5057848;28;20064;-72
2023/12/26 05:11:25;;;;;;;14.57;3.45;;;31.00;90.80;;;;;;5052278;28;20326;-73
2023/12/26 05:13:53;;;;;;;15.88;3.38;;;30.10;92.00;;;;;;5053676;28;20025;-73
2023/12/26 05:16:21;;;;;;;16.80;4.28;;;30.10;92.60;;;;;;5036149;28;20139;-76
2023/12/26 05:18:48;;;;;;;16.60;3.80;;;30.40;92.30;;;;;;5033258;28;20060;-72
2023/12/26 05:21:20;;;;;;;17.85;3.95;;;30.50;92.40;;;;;;5052630;28;20036;-73
2023/12/26 05:23:48;;;;;;;22.50;4.07;;;30.60;91.70;;;;;;5049165;28;20546;-73
2023/12/26 05:26:18;;;;;;;16.95;3.75;;;30.60;91.70;;;;;;5049621;28;20528;-76
2023/12/26 05:28:46;;;;;;;17.52;3.75;;;30.30;91.50;;;;;;5050787;28;20044;-73
2023/12/26 05:31:13;;;;;;;11.88;2.53;;;29.90;91.50;;;;;;5050668;28;20060;-73
2023/12/26 05:33:41;;;;;;;10.70;3.20;;;29.80;91.90;;;;;;5054026;28;20032;-71
2023/12/26 05:36:08;;;;;;;7.55;3.00;;;29.50;91.60;;;;;;5045132;28;20043;-73
2023/12/26 05:38:37;;;;;;;13.27;3.05;;;29.30;91.80;;;;;;5050535;28;20025;-72
2023/12/26 05:41:05;;;;;;;14.93;3.40;;;28.90;92.50;;;;;;5057558;28;20501;-71
2023/12/26 05:43:33;;;;;;;13.15;3.38;;;29.00;92.00;;;;;;5051916;28;20017;-72
2023/12/26 05:46:03;;;;;;;9.45;2.45;;;28.80;91.90;;;;;;5049277;28;20056;-71
2023/12/26 05:48:31;;;;;;;10.88;2.75;;;28.80;92.10;;;;;;5046496;28;20017;-72
2023/12/26 05:50:58;;;;;;;6.90;2.60;;;28.80;91.90;;;;;;5046317;28;20067;-71
2023/12/26 05:53:29;;;;;;;15.32;2.95;;;29.00;91.80;;;;;;5041116;28;20571;-72
2023/12/26 05:55:57;;;;;;;13.63;3.83;;;29.00;91.80;;;;;;5049638;28;20087;-71
2023/12/26 05:58:25;;;;;;;10.30;3.10;;;29.10;91.90;;;;;;5049638;28;20028;-72
2023/12/26 06:00:53;;;;;;;11.93;3.10;;;28.70;91.50;;;;;;5033673;28;20033;-71
2023/12/26 06:03:20;;;;;;;10.80;2.40;;;28.20;92.10;;;;;;5041966;28;20013;-71
2023/12/26 06:05:48;;;;;;;11.35;3.28;;;28.20;92.30;;;;;;5042232;28;20478;-71
2023/12/26 06:08:15;;;;;;;10.57;2.80;;;27.90;92.00;;;;;;5047849;28;20037;-71
2023/12/26 06:10:43;;;;;;;8.52;3.03;;;27.70;92.40;;;;;;5042837;28;20472;-69
2023/12/26 06:13:11;;;;;;;8.82;2.60;;;27.70;92.30;;;;;;5047305;28;20093;-70
2023/12/26 06:15:38;;;;;;;8.30;2.50;;;27.90;92.00;;;;;;5054792;28;20033;-70
2023/12/26 06:18:05;;;;;;;10.57;2.50;;;27.90;91.80;;;;;;5050552;28;20025;-70
2023/12/26 06:20:33;;;;;;;4.45;1.63;;;28.20;90.70;;;;;;5058058;28;20025;-71
2023/12/26 06:23:00;;;;;;;7.57;2.17;;;28.20;81.60;;;;;;5052725;28;20057;-70
2023/12/26 06:25:27;;;;;;;3.85;1.30;;;28.20;82.50;;;;;;5052952;28;20024;-70
2023/12/26 06:27:55;;;;;;;7.55;1.20;;;27.90;82.20;;;;;;5041454;28;20510;-70
2023/12/26 06:30:22;;;;;;;3.78;1.13;;;28.00;77.60;;;;;;5049002;28;20021;-70
2023/12/26 06:32:49;;;;;;;6.00;1.50;;;27.70;77.80;;;;;;5053009;28;20031;-71
2023/12/26 06:35:17;;;;;;;2.90;1.20;;;27.80;77.00;;;;;;5053321;28;20028;-70
2023/12/26 06:37:44;;;;;;;4.88;1.17;;;28.00;76.40;;;;;;5055427;28;20033;-71
2023/12/26 06:40:12;;;;;;;3.78;0.98;;;28.00;72.40;;;;;;5054597;28;20116;-71
2023/12/26 06:42:39;;;;;;;4.45;0.95;;;27.90;73.30;;;;;;5055651;28;20025;-70
2023/12/26 06:45:07;;;;;;;2.35;1.17;;;27.70;73.30;;;;;;5056774;28;20602;-70
2023/12/26 06:47:34;;;;;;;6.45;1.23;;;27.70;74.00;;;;;;5037655;28;20401;-72
2023/12/26 06:50:02;;;;;;;2.75;1.10;;;27.70;74.00;;;;;;5055313;28;20370;-71
2023/12/26 06:52:29;;;;;;;5.05;1.02;;;27.70;74.30;;;;;;5051110;28;20139;-71
2023/12/26 06:54:56;;;;;;;4.32;1.17;;;27.80;74.10;;;;;;5031382;28;20059;-72
2023/12/26 06:57:24;;;;;;;3.53;1.10;;;27.80;74.00;;;;;;5054210;28;20068;-71
2023/12/26 06:59:53;;;;;;;2.35;1.10;;;27.70;74.00;;;;;;5055211;28;20044;-71
2023/12/26 07:02:20;;;;;;;4.57;1.45;;;27.60;76.20;;;;;;5053740;28;20021;-71
2023/12/26 07:04:48;;;;;;;2.85;1.15;;;27.70;75.30;;;;;;5035924;28;20133;-71
2023/12/26 07:07:15;;;;;;;3.13;1.20;;;27.50;77.30;;;;;;5055702;28;20013;-71
2023/12/26 07:09:42;;;;;;;4.10;1.58;;;27.40;78.80;;;;;;5051447;28;20071;-71
2023/12/26 07:12:10;;;;;;;3.88;1.33;;;27.30;79.80;;;;;;5053586;28;20379;-71
2023/12/26 07:14:37;;;;;;;3.22;1.23;;;27.20;81.10;;;;;;5054440;28;20032;-72
2023/12/26 07:17:05;;;;;;;3.70;1.42;;;27.10;81.40;;;;;;5055835;28;20033;-71
2023/12/26 07:19:33;;;;;;;3.03;1.45;;;27.00;82.30;;;;;;5052139;28;20098;-72
2023/12/26 07:22:00;;;;;;;3.70;1.40;;;26.90;83.30;;;;;;5053511;28;20589;-71
2023/12/26 07:24:27;;;;;;;3.72;1.75;;;26.90;82.60;;;;;;5057890;28;20111;-71
2023/12/26 07:26:55;;;;;;;5.30;1.38;;;27.00;82.90;;;;;;5048867;28;20033;-70
2023/12/26 07:29:23;;;;;;;5.72;1.30;;;27.20;83.20;;;;;;5049687;28;20462;-71
2023/12/26 07:31:52;;;;;;;3.33;1.52;;;27.30;81.50;;;;;;5053493;28;20490;-71
2023/12/26 07:34:20;;;;;;;3.53;1.30;;;27.30;82.20;;;;;;5051847;28;20469;-71
2023/12/26 07:36:47;;;;;;;4.30;1.35;;;27.40;81.20;;;;;;5054461;28;20037;-71
2023/12/26 07:39:15;;;;;;;3.45;1.50;;;27.50;80.80;;;;;;5047559;28;20029;-71
2023/12/26 07:41:42;;;;;;;4.05;1.55;;;27.40;81.00;;;;;;5048181;28;20036;-71
2023/12/26 07:44:09;;;;;;;2.75;1.50;;;27.30;81.90;;;;;;5055033;28;20133;-71
2023/12/26 07:46:37;;;;;;;5.05;1.33;;;27.20;83.00;;;;;;5052167;28;20021;-71
2023/12/26 07:49:04;;;;;;;5.15;1.50;;;27.30;82.70;;;;;;5024815;28;20090;-70
2023/12/26 07:51:32;;;;;;;3.00;1.52;;;27.30;83.70;;;;;;5047372;28;20377;-72
2023/12/26 07:54:02;;;;;;;2.25;1.23;;;27.20;84.00;;;;;;5048547;28;20047;-70
2023/12/26 07:56:30;;;;;;;7.32;1.95;;;27.40;82.10;;;;;;5049132;28;20040;-69
2023/12/26 07:58:57;;;;;;;3.22;1.42;;;27.50;81.80;;;;;;5044967;28;20032;-71
2023/12/26 08:01:26;;;;;;;2.55;1.50;;;27.40;82.40;;;;;;5049565;28;20036;-71
2023/12/26 08:03:54;;;;;;;3.65;1.27;;;27.20;84.00;;;;;;5050834;28;20111;-71
2023/12/26 08:06:24;;;;;;;3.40;1.42;;;27.00;84.40;;;;;;5044328;28;20025;-72
2023/12/26 08:08:52;;;;;;;2.30;1.27;;;27.00;84.40;;;;;;5051924;28;20053;-72
2023/12/26 08:11:20;;;;;;;2.67;1.48;;;27.00;84.60;;;;;;5059511;28;20109;-72
2023/12/26 08:13:47;;;;;;;4.97;1.77;;;26.70;85.10;;;;;;5050338;28;20021;-72
2023/12/26 08:16:14;;;;;;;3.83;1.58;;;26.60;85.20;;;;;;5054016;28;20053;-71
2023/12/26 08:18:42;;;;;;;3.85;1.70;;;26.40;86.10;;;;;;5055024;28;20477;-71
2023/12/26 08:21:09;;;;;;;2.50;1.58;;;26.30;86.10;;;;;;5056535;28;20110;-71
2023/12/26 08:23:37;;;;;;;4.47;1.88;;;26.30;87.00;;;;;;5054643;28;20508;-72
2023/12/26 08:26:07;;;;;;;7.28;1.73;;;26.30;87.00;;;;;;5056244;28;21045;-72
2023/12/26 08:28:35;;;;;;;5.10;1.83;;;26.20;88.30;;;;;;5054855;28;20021;-73
2023/12/26 08:31:02;;;;;;;4.80;1.80;;;26.10;89.00;;;;;;5050284;28;20462;-72
2023/12/26 08:33:31;;;;;;;5.97;2.20;;;26.00;89.70;;;;;;5050606;28;20029;-72
2023/12/26 08:35:58;;;;;;;3.53;1.83;;;26.00;90.30;;;;;;5054781;28;20040;-72
2023/12/26 08:38:26;;;;;;;5.20;1.98;;;25.90;90.50;;;;;;5033341;28;20021;-72
2023/12/26 08:40:53;;;;;;;4.85;1.80;;;25.80;91.00;;;;;;5054907;28;20074;-72
2023/12/26 08:43:22;;;;;;;2.60;1.73;;;25.80;91.50;;;;;;5055859;28;20028;-72
2023/12/26 08:45:49;;;;;;;7.65;1.98;;;25.70;92.00;;;;;;5058852;28;20022;-72
2023/12/26 08:48:17;;;;;;;6.40;2.00;;;25.60;92.50;;;;;;5055935;28;20036;-72
2023/12/26 08:50:44;;;;;;;3.35;1.85;;;25.60;92.90;;;;;;5054114;28;20040;-72
2023/12/26 08:53:11;;;;;;;3.67;2.10;;;25.40;93.40;;;;;;5058856;28;20028;-72
2023/12/26 08:55:39;;;;;;;5.43;2.08;;;25.30;93.60;;;;;;5052126;28;20032;-72
2023/12/26 08:58:06;;;;;;;3.47;1.58;;;25.20;93.80;;;;;;5053991;28;20032;-72
2023/12/26 09:00:33;;;;;;;4.55;2.10;;;25.20;94.10;;;;;;5054839;28;20029;-73
2023/12/26 09:03:01;;;;;;;8.20;2.22;;;25.10;94.40;;;;;;5050326;28;20018;-72
2023/12/26 09:05:28;;;;;;;5.03;2.00;;;25.10;94.40;;;;;;5055951;28;20465;-72
2023/12/26 09:07:56;;;;;;;3.72;1.85;;;25.10;94.50;;;;;;5059415;28;20134;-72
2023/12/26 09:10:23;;;;;;;4.25;1.48;;;25.00;94.50;;;;;;5045800;28;20028;-72
2023/12/26 09:12:50;;;;;;;5.40;1.90;;;24.90;94.60;;;;;;5046746;28;20490;-72
2023/12/26 09:15:18;;;;;;;3.33;1.60;;;24.90;94.50;;;;;;5046984;28;20171;-72
2023/12/26 09:17:45;;;;;;;6.45;1.88;;;24.80;94.60;;;;;;5047534;28;20033;-72
2023/12/26 09:20:12;;;;;;;6.20;2.10;;;24.80;94.60;;;;;;5052558;28;20457;-71
2023/12/26 09:22:40;;;;;;;4.95;2.08;;;24.80;94.40;;;;;;5051651;28;20021;-72
2023/12/26 09:25:10;;;;;;;5.35;1.90;;;24.80;94.60;;;;;;5049310;28;20390;-72
2023/12/26 09:27:37;;;;;;;4.70;1.50;;;24.70;94.40;;;;;;5057998;28;20167;-72
2023/12/26 09:30:05;;;;;;;3.28;1.80;;;24.70;94.70;;;;;;5045197;28;20082;-72
2023/12/26 09:32:33;;;;;;;4.43;1.80;;;24.70;94.70;;;;;;5048032;28;20021;-72
2023/12/26 09:35:00;;;;;;;4.18;1.90;;;24.70;94.90;;;;;;5050211;28;20385;-71
2023/12/26 09:37:27;;;;;;;3.88;1.98;;;24.60;94.90;;;;;;5044339;28;20033;-72
2023/12/26 09:39:54;;;;;;;5.63;1.88;;;24.50;94.90;;;;;;5051646;28;20029;-72
2023/12/26 09:42:23;;;;;;;6.68;2.17;;;24.40;95.30;;;;;;5044429;28;20025;-72
2023/12/26 09:44:51;;;;;;;5.97;1.88;;;24.70;94.90;;;;;;5056715;28;20023;-71
2023/12/26 09:47:20;;;;;;;4.68;1.75;;;24.70;95.30;;;;;;5053118;28;20025;-71
2023/12/26 09:49:48;;;;;;;2.60;1.50;;;24.70;95.30;;;;;;5052827;28;20020;-71
2023/12/26 09:52:16;;;;;;;4.32;1.88;;;24.60;95.50;;;;;;5056531;28;20411;-71
2023/12/26 09:54:45;;;;;;;4.45;2.35;;;24.60;95.80;;;;;;5061121;28;20039;-71
2023/12/26 09:57:14;;;;;;;6.10;2.08;;;24.50;95.70;;;;;;5052624;28;20036;-72
2023/12/26 09:59:42;;;;;;;5.22;1.98;;;24.50;95.70;;;;;;5036118;28;20021;-71
2023/12/26 10:02:12;;;;;;;4.85;2.30;;;24.40;95.90;;;;;;5055435;28;20021;-71
2023/12/26 10:04:41;;;;;;;3.58;2.25;;;24.30;95.90;;;;;;5055297;28;20017;-72
2023/12/26 10:07:09;;;;;;;6.25;2.38;;;24.30;96.00;;;;;;5060969;28;20021;-71
2023/12/26 10:09:37;;;;;;;6.25;2.22;;;24.30;96.10;;;;;;5058320;28;20037;-71
2023/12/26 10:12:05;;;;;;;3.28;2.17;;;24.10;96.20;;;;;;5037519;28;20111;-71
2023/12/26 10:14:32;;;;;;;7.95;2.50;;;24.10;96.20;;;;;;5059928;28;20056;-70
2023/12/26 10:17:00;;;;;;;3.97;2.17;;;24.10;96.30;;;;;;5059696;28;20126;-70
2023/12/26 10:19:27;;;;;;;6.25;2.45;;;24.30;96.40;;;;;;5056018;28;20029;-70
2023/12/26 10:21:55;;;;;;;7.88;2.42;;;24.50;95.90;;;;;;5057692;28;20108;-70
2023/12/26 10:24:22;;;;;;;4.85;2.20;;;24.30;96.30;;;;;;5055997;28;20029;-70
2023/12/26 10:26:50;;;;;;;5.45;2.40;;;24.20;96.70;;;;;;5053427;28;20480;-71
2023/12/26 10:29:17;;;;;;;4.28;2.25;;;24.20;96.50;;;;;;5049556;28;20028;-70
2023/12/26 10:31:45;;;;;;;3.85;1.80;;;24.00;97.00;;;;;;5056575;28;20110;-72
2023/12/26 10:34:20;;;;;;;3.97;1.80;;;24.00;97.00;;;;;;5036255;28;20033;-73
2023/12/26 10:36:52;;;;;;;4.82;2.10;;;24.00;97.20;;;;;;5035871;28;20045;-72
2023/12/26 10:39:19;;;;;;;5.63;1.90;;;24.00;97.10;;;;;;5052069;28;20029;-72
2023/12/26 10:41:48;;;;;;;6.18;2.85;;;24.00;97.10;;;;;;5053364;28;20017;-71
2023/12/26 10:44:17;;;;;;;4.30;2.40;;;24.20;97.10;;;;;;5052434;28;20032;-70
2023/12/26 10:46:46;;;;;;;6.22;2.20;;;24.70;96.50;;;;;;5058444;28;20017;-71
2023/12/26 10:49:23;;;;;;;4.53;1.98;;;24.70;96.30;;;;;;5053368;28;20043;-71
2023/12/26 10:51:53;;;;;;;5.32;2.28;;;24.70;96.20;;;;;;5038261;28;20040;-71
2023/12/26 10:54:25;;;;;;;5.55;1.90;;;24.50;96.40;;;;;;5058101;28;20029;-71
2023/12/26 10:56:53;;;;;;;4.40;2.00;;;24.40;96.60;;;;;;5052765;28;20052;-71
2023/12/26 10:59:21;;;;;;;5.10;1.90;;;24.50;96.40;;;;;;5057599;28;20032;-71
2023/12/26 11:01:48;;;;;;;4.45;1.60;;;24.30;96.80;;;;;;5050926;28;20662;-71
2023/12/26 11:04:17;;;;;;;7.18;2.13;;;24.10;97.00;;;;;;5054196;28;20024;-71
2023/12/26 11:06:44;;;;;;;4.00;1.75;;;24.00;97.30;;;;;;5059754;28;20102;-71
2023/12/26 11:09:12;;;;;;;7.43;2.38;;;23.90;97.50;;;;;;5048285;28;20041;-70
2023/12/26 11:11:41;;;;;;;4.45;1.98;;;23.80;97.60;;;;;;5051705;28;20536;-71
2023/12/26 11:14:10;;;;;;;5.95;2.22;;;23.80;97.80;;;;;;5057554;28;20532;-71
2023/12/26 11:16:38;;;;;;;4.60;1.70;;;23.80;97.90;;;;;;5029835;28;20454;-71
2023/12/26 11:19:05;;;;;;;6.20;2.50;;;23.80;97.80;;;;;;5040239;28;20431;-71
2023/12/26 11:21:34;;;;;;;4.93;2.05;;;23.90;97.70;;;;;;5051351;28;20025;-70
2023/12/26 11:24:02;;;;;;;4.80;2.13;;;24.00;97.60;;;;;;5049492;28;20043;-71
2023/12/26 11:26:33;;;;;;;4.32;2.30;;;24.20;97.60;;;;;;5049627;28;20104;-70
2023/12/26 11:29:06;;;;;;;4.18;2.13;;;24.30;97.30;;;;;;5043255;28;20064;-70
2023/12/26 11:31:36;;;;;;;5.13;1.85;;;24.10;97.60;;;;;;5045457;28;20413;-71
2023/12/26 11:34:08;;;;;;;5.30;1.95;;;24.00;97.90;;;;;;5054920;28;20033;-70
2023/12/26 11:36:36;;;;;;;5.80;2.08;;;23.90;97.90;;;;;;5050681;28;20029;-71
2023/12/26 11:39:04;;;;;;;4.05;1.77;;;23.80;98.20;;;;;;5050868;28;20029;-71
2023/12/26 11:41:31;;;;;;;4.07;2.22;;;23.80;98.40;;;;;;5046893;28;20390;-71
2023/12/26 11:43:59;;;;;;;3.38;2.28;;;23.70;98.50;;;;;;5047980;28;20408;-71
2023/12/26 11:46:26;;;;;;;8.43;2.13;;;23.70;98.40;;;;;;5059702;28;20118;-71
2023/12/26 11:48:53;;;;;;;4.10;2.28;;;23.70;98.60;;;;;;5048871;28;20021;-71
2023/12/26 11:51:21;;;;;;;5.00;2.53;;;23.70;98.60;;;;;;5031263;28;20031;-71
2023/12/26 11:53:48;;;;;;;7.05;2.80;;;23.70;98.70;;;;;;5055307;28;20112;-71
2023/12/26 11:56:16;;;;;;;5.35;2.22;;;23.70;98.70;;;;;;5050300;28;20033;-71
2023/12/26 11:58:43;;;;;;;6.60;2.70;;;23.60;98.80;;;;;;5031361;28;20124;-71
2023/12/26 12:01:10;;;;;;;6.68;2.70;;;23.60;98.80;;;;;;5053144;28;20057;-72
2023/12/26 12:03:38;;;;;;;6.70;2.80;;;23.60;98.80;;;;;;5047458;28;20033;-70
2023/12/26 12:06:17;;;;;;;5.20;2.45;;;23.60;98.80;;;;;;5055573;28;20077;-69
2023/12/26 12:09:18;;;;;;;11.65;2.92;;;23.60;98.80;;;;;;5055237;28;20056;-70
2023/12/26 12:11:51;;;;;;;5.88;2.78;;;23.50;98.80;;;;;;4993279;28;20036;-68
2023/12/26 12:14:18;;;;;;;6.40;2.40;;;23.50;99.30;;;;;;5050101;28;20090;-70
2023/12/26 12:16:46;;;;;;;8.80;3.05;;;23.40;99.20;;;;;;5057014;28;20045;-70
2023/12/26 12:19:15;;;;;;;7.07;2.90;;;23.30;99.30;;;;;;5054465;28;20198;-70
2023/12/26 12:21:42;;;;;;;8.73;3.30;;;23.30;99.40;;;;;;5053958;28;20029;-70
2023/12/26 12:24:19;;;;;;;8.45;3.00;;;23.30;99.40;;;;;;5058205;28;20036;-70
2023/12/26 12:27:18;;;;;;;5.85;3.22;;;23.60;98.90;;;;;;5056562;28;20033;-70
2023/12/26 12:30:02;;;;;;;9.02;3.35;;;23.30;99.20;;;;;;4999225;28;20437;-69
2023/12/26 12:32:36;;;;;;;6.20;3.42;;;23.30;99.70;;;;;;5054662;28;20044;-70
2023/12/26 12:35:23;;;;;;;10.70;2.85;;;23.20;99.80;;;;;;5051330;28;20025;-70
2023/12/26 12:37:50;;;;;;;8.35;2.85;;;23.00;99.90;;;;;;5054149;28;20040;-70
2023/12/26 12:40:18;;;;;;;5.10;2.42;;;22.90;99.90;;;;;;5046005;28;20039;-70
2023/12/26 12:42:45;;;;;;;7.90;2.80;;;22.80;99.90;;;;;;5055089;28;20094;-70
2023/12/26 12:45:12;;;;;;;7.32;2.75;;;22.70;99.90;;;;;;5050544;28;20029;-70
2023/12/26 12:47:40;;;;;;;5.45;2.85;;;22.70;99.90;;;;;;5050658;28;20020;-70
2023/12/26 12:50:07;;;;;;;5.38;3.00;;;22.60;99.90;;;;;;5050417;28;20056;-70
2023/12/26 12:52:35;;;;;;;7.20;2.90;;;22.60;99.90;;;;;;5049778;28;20384;-70